Time;durP1;ratioP1;P1;durP2;ratioP2;P2;SDS_P1;SDS_P2;PMS_P1;PMS_P2;Temp;Humidity;BMP_temperature;BMP_pressure;BME280_temperature;BME280_humidity;BME280_pressure;Samples;Min_cycle;Max_cycle;Signal;HPM_P1;HPM_P2
2022/07/11 00:00:30;;;;;;;5.97;1.70;;;;;;;12.85;69.71;101022.65;1712123;82;21041;-87
2022/07/11 00:02:56;;;;;;;7.70;2.17;;;;;;;12.84;69.72;101026.98;1700529;82;330582;-88
2022/07/11 00:05:23;;;;;;;3.62;1.30;;;;;;;12.83;69.78;101023.97;1704061;83;21131;-87
2022/07/11 00:07:49;;;;;;;4.22;1.65;;;;;;;12.83;69.81;101015.33;1702914;83;22141;-87
2022/07/11 00:10:15;;;;;;;2.03;1.57;;;;;;;12.79;69.81;101015.83;1707500;83;20866;-87
2022/07/11 00:12:41;;;;;;;6.83;1.90;;;;;;;12.77;69.88;101011.11;1696268;83;21131;-87
2022/07/11 00:15:08;;;;;;;4.73;1.50;;;;;;;12.78;69.91;101019.75;1712963;83;21250;-87
2022/07/11 00:17:34;;;;;;;8.98;2.08;;;;;;;12.75;69.93;101012.02;1702371;83;21092;-87
2022/07/11 00:20:01;;;;;;;5.50;1.80;;;;;;;12.75;69.96;101006.83;1700745;83;20993;-87
2022/07/11 00:22:27;;;;;;;2.98;1.40;;;;;;;12.74;69.98;101011.17;1709171;82;20925;-88
2022/07/11 00:24:53;;;;;;;3.60;1.57;;;;;;;12.74;70.04;101006.42;1704140;83;20981;-87
2022/07/11 00:27:19;;;;;;;2.97;1.80;;;;;;;12.72;70.00;101007.75;1668668;84;20879;-87
2022/07/11 00:29:45;;;;;;;5.60;1.73;;;;;;;12.69;70.06;101005.20;1672293;85;20937;-88
2022/07/11 00:32:19;;;;;;;4.58;1.75;;;;;;;12.65;70.12;101002.25;1659713;85;20938;-87
2022/07/11 00:34:45;;;;;;;6.62;1.60;;;;;;;12.65;70.16;101001.40;1648293;85;20985;-88
2022/07/11 00:37:11;;;;;;;4.28;1.25;;;;;;;12.62;70.12;101001.01;1634262;85;20970;-87
2022/07/11 00:39:41;;;;;;;4.30;1.47;;;;;;;12.59;70.14;100999.33;1650669;85;20982;-87
2022/07/11 00:42:07;;;;;;;2.90;1.30;;;;;;;12.59;70.20;100999.77;1663439;85;20871;-87
2022/07/11 00:44:36;;;;;;;8.30;1.50;;;;;;;12.58;70.25;100991.13;1669112;85;20945;-87
2022/07/11 00:47:01;;;;;;;4.72;1.60;;;;;;;12.58;70.21;100995.46;1650773;85;20969;-88
2022/07/11 00:49:28;;;;;;;4.30;1.52;;;;;;;12.54;70.23;100994.66;1651725;85;20977;-87
2022/07/11 00:51:54;;;;;;;5.30;1.13;;;;;;;12.49;70.24;100989.14;1648223;85;21109;-87
2022/07/11 00:54:22;;;;;;;7.50;1.47;;;;;;;12.43;70.29;100982.36;1709373;83;21713;-88
2022/07/11 00:56:50;;;;;;;6.67;1.40;;;;;;;12.43;70.32;100982.80;1697621;83;20917;-87
2022/07/11 00:59:18;;;;;;;8.80;1.80;;;;;;;12.39;70.35;100982.00;1697665;83;20975;-88
2022/07/11 01:01:45;;;;;;;7.83;1.52;;;;;;;12.38;70.36;100981.58;1710308;83;21344;-87
2022/07/11 01:04:11;;;;;;;5.33;1.47;;;;;;;12.35;70.38;100982.08;1711213;83;20977;-87
2022/07/11 01:06:37;;;;;;;3.90;1.40;;;;;;;12.32;70.47;100981.69;1702100;82;21022;-87
2022/07/11 01:09:03;;;;;;;5.12;1.70;;;;;;;12.21;70.37;100958.97;1705996;83;21116;-87
2022/07/11 01:11:29;;;;;;;6.27;1.47;;;;;;;12.30;70.51;100981.30;1703414;82;21052;-87
2022/07/11 01:13:55;;;;;;;4.13;1.43;;;;;;;12.26;70.55;100977.46;1715364;83;21553;-87
2022/07/11 01:16:22;;;;;;;2.47;1.00;;;;;;;12.25;70.52;100974.89;1698008;83;21050;-87
2022/07/11 01:18:54;;;;;;;3.62;1.32;;;;;;;12.22;70.52;100968.02;1712165;83;21073;-87
2022/07/11 01:21:29;;;;;;;3.75;1.35;;;;;;;12.22;70.56;100974.50;1716714;83;21017;-87
2022/07/11 01:24:01;;;;;;;3.55;1.30;;;;;;;12.19;70.56;100975.85;1695127;83;21507;-86
2022/07/11 01:26:29;;;;;;;4.37;1.25;;;;;;;12.13;70.57;100975.95;1700220;83;21068;-86
2022/07/11 01:28:57;;;;;;;5.42;1.40;;;;;;;12.09;70.65;100976.03;1708419;83;20993;-87
2022/07/11 01:31:23;;;;;;;2.92;1.25;;;;;;;12.09;70.66;100979.47;1704899;83;21009;-87
2022/07/11 01:33:49;;;;;;;4.67;1.20;;;;;;;12.09;70.70;100976.03;1692973;83;20961;-87
2022/07/11 01:36:15;;;;;;;4.45;1.52;;;;;;;12.05;70.68;100971.77;1701084;83;21108;-87
2022/07/11 01:38:43;;;;;;;2.25;1.10;;;;;;;12.02;70.69;100972.67;1697868;83;21008;-87
2022/07/11 01:41:09;;;;;;;5.50;1.37;;;;;;;11.97;70.72;100966.71;1641818;85;21653;-87
2022/07/11 01:43:35;;;;;;;3.87;1.60;;;;;;;11.92;70.76;100961.63;1652707;85;21068;-86
2022/07/11 01:46:03;;;;;;;3.35;1.27;;;;;;;11.88;70.77;100965.59;1644573;85;406716;-87
2022/07/11 01:48:29;;;;;;;3.72;1.20;;;;;;;11.86;70.78;100966.91;1707489;83;21587;-86
2022/07/11 01:50:55;;;;;;;6.50;1.10;;;;;;;11.83;70.85;100968.69;1713067;83;21056;-87
2022/07/11 01:53:21;;;;;;;10.47;2.37;;;;;;;11.80;70.85;100963.56;1704532;83;21187;-87
2022/07/11 01:55:47;;;;;;;4.10;1.23;;;;;;;11.74;70.84;100969.66;1693536;83;21548;-87
2022/07/11 01:58:14;;;;;;;3.30;1.32;;;;;;;11.72;70.90;100966.67;1649918;85;21570;-87
2022/07/11 02:00:40;;;;;;;8.87;1.57;;;;;;;11.70;70.91;100961.95;1650374;85;21574;-87
2022/07/11 02:03:06;;;;;;;2.33;1.20;;;;;;;11.66;70.95;100962.87;1670247;85;21033;-87
2022/07/11 02:05:32;;;;;;;3.83;1.23;;;;;;;11.61;70.97;100965.09;1654916;85;21116;-87
2022/07/11 02:08:13;;;;;;;3.07;1.30;;;;;;;11.63;71.04;100961.63;1666421;85;21537;-87
2022/07/11 02:10:44;;;;;;;4.55;1.20;;;;;;;11.62;71.01;100963.36;1643468;85;21360;-87
2022/07/11 02:13:13;;;;;;;4.92;1.37;;;;;;;11.63;71.05;100966.37;1662129;84;217615;-87
2022/07/11 02:15:41;;;;;;;3.35;1.10;;;;;;;11.60;71.03;100963.38;1668163;85;20981;-87
2022/07/11 02:18:08;;;;;;;7.62;2.12;;;;;;;11.59;70.99;100967.28;1662204;85;21411;-87
2022/07/11 02:20:35;;;;;;;6.80;1.17;;;;;;;11.54;71.06;100967.36;1659649;85;21494;-87
2022/07/11 02:23:01;;;;;;;6.65;1.25;;;;;;;11.52;71.07;100961.78;1664463;85;21434;-87
2022/07/11 02:25:28;;;;;;;4.67;1.30;;;;;;;11.52;71.12;100963.08;1710744;83;20926;-87
2022/07/11 02:27:54;;;;;;;8.70;1.57;;;;;;;11.50;71.10;100966.13;1722022;83;21352;-88
2022/07/11 02:30:20;;;;;;;4.47;1.82;;;;;;;11.45;71.13;100966.19;1709096;82;21468;-88
2022/07/11 02:32:47;;;;;;;3.62;0.90;;;;;;;11.41;71.18;100962.39;1705288;83;21529;-88
2022/07/11 02:35:14;;;;;;;5.42;1.35;;;;;;;11.37;71.18;100964.17;1719067;82;21537;-87
2022/07/11 02:37:40;;;;;;;4.37;1.27;;;;;;;11.33;71.21;100964.23;1712125;82;20894;-88
2022/07/11 02:40:07;;;;;;;3.17;1.10;;;;;;;11.33;71.29;100970.70;1695769;83;21112;-88
2022/07/11 02:42:36;;;;;;;4.70;1.27;;;;;;;11.32;71.32;100968.55;1707781;83;21503;-88
2022/07/11 02:45:04;;;;;;;8.10;1.43;;;;;;;11.27;71.30;100971.64;1719835;83;21450;-88
2022/07/11 02:47:30;;;;;;;6.40;1.20;;;;;;;11.22;71.36;100976.88;1717858;83;21573;-88
2022/07/11 02:49:56;;;;;;;10.00;2.13;;;;;;;11.20;71.39;100977.33;1712714;83;21584;-88
2022/07/11 02:52:22;;;;;;;2.83;1.05;;;;;;;11.20;71.45;100973.89;1662402;85;21583;-87
2022/07/11 02:54:51;;;;;;;3.30;1.22;;;;;;;11.21;71.48;100975.16;1715020;82;21528;-87
2022/07/11 02:57:17;;;;;;;8.20;1.00;;;;;;;11.22;71.46;100978.61;1725013;82;21562;-87
2022/07/11 02:59:43;;;;;;;8.43;1.32;;;;;;;11.22;71.47;100982.05;1722953;82;21497;-87
2022/07/11 03:02:09;;;;;;;4.35;1.40;;;;;;;11.24;71.50;100976.42;1717363;82;21028;-87
2022/07/11 03:04:35;;;;;;;6.17;1.37;;;;;;;11.25;71.54;100979.42;1710471;82;21524;-88
2022/07/11 03:07:01;;;;;;;6.60;2.03;;;;;;;11.27;71.54;100976.82;1727621;82;21521;-87
2022/07/11 03:09:27;;;;;;;3.80;1.03;;;;;;;11.12;71.59;100964.07;1727193;82;21493;-87
2022/07/11 03:11:54;;;;;;;3.73;1.40;;;;;;;11.12;71.59;100964.07;1706471;82;21905;-87
2022/07/11 03:14:20;;;;;;;5.27;1.30;;;;;;;11.22;71.60;100981.20;1725997;82;21509;-87
2022/07/11 03:16:46;;;;;;;4.23;1.23;;;;;;;11.21;71.65;100982.08;1707686;82;20902;-88
2022/07/11 03:19:13;;;;;;;5.17;1.22;;;;;;;11.18;71.67;100980.81;1719886;82;22538;-87
2022/07/11 03:21:39;;;;;;;10.43;1.42;;;;;;;11.18;71.73;100986.85;1728978;82;21472;-86
2022/07/11 03:24:05;;;;;;;6.97;1.53;;;;;;;11.16;71.81;100976.09;1710941;82;20921;-87
2022/07/11 03:26:31;;;;;;;3.60;1.10;;;;;;;11.21;71.89;100975.16;1708946;82;21472;-87
2022/07/11 03:28:57;;;;;;;4.03;1.27;;;;;;;11.24;71.87;100982.89;1733369;82;20922;-87
2022/07/11 03:31:23;;;;;;;5.87;1.33;;;;;;;11.28;71.96;100974.65;1732408;82;21330;-87
2022/07/11 03:33:49;;;;;;;5.70;1.60;;;;;;;11.31;71.98;100984.97;1713164;82;21697;-87
2022/07/11 03:36:15;;;;;;;3.83;1.07;;;;;;;11.34;72.00;100974.56;1722894;82;21541;-87
2022/07/11 03:38:41;;;;;;;5.00;1.40;;;;;;;11.36;72.04;100975.84;1709868;82;21576;-87
2022/07/11 03:41:07;;;;;;;7.50;1.40;;;;;;;11.40;72.15;100982.70;1712891;82;20990;-87
2022/07/11 03:43:33;;;;;;;7.30;1.40;;;;;;;11.43;72.17;100978.77;1718695;82;21596;-87
2022/07/11 03:45:59;;;;;;;6.95;1.40;;;;;;;11.47;72.16;100980.41;1717509;82;21052;-87
2022/07/11 03:48:25;;;;;;;4.73;1.47;;;;;;;11.49;72.16;100979.95;1725792;82;21487;-87
2022/07/11 03:50:51;;;;;;;4.67;1.40;;;;;;;11.54;72.22;100979.45;1710000;82;21520;-88
2022/07/11 03:53:17;;;;;;;5.13;1.50;;;;;;;11.57;72.25;100981.55;1715838;82;21023;-88
2022/07/11 03:55:44;;;;;;;6.17;1.45;;;;;;;11.58;72.29;100986.30;1684636;84;21014;-87
2022/07/11 03:58:10;;;;;;;4.30;1.30;;;;;;;11.61;72.40;100987.11;1707331;83;21049;-87
2022/07/11 04:00:36;;;;;;;4.63;1.30;;;;;;;11.54;72.74;100961.31;1668525;85;22318;-87
2022/07/11 04:03:02;;;;;;;3.67;1.63;;;;;;;11.72;72.46;100986.95;1667635;85;21169;-87
2022/07/11 04:05:28;;;;;;;6.20;1.50;;;;;;;11.76;72.42;100988.63;1657662;85;21072;-88
2022/07/11 04:07:55;;;;;;;5.73;1.27;;;;;;;11.79;72.45;100987.75;1698502;83;21326;-88
2022/07/11 04:10:20;;;;;;;5.90;1.30;;;;;;;11.85;72.47;100987.66;1687280;84;20894;-88
2022/07/11 04:12:47;;;;;;;2.43;1.30;;;;;;;11.88;72.50;100989.77;1703137;83;21599;-88
2022/07/11 04:15:13;;;;;;;4.20;1.43;;;;;;;11.91;72.57;100980.66;1710353;83;21566;-88
2022/07/11 04:17:39;;;;;;;4.72;1.35;;;;;;;11.96;72.55;100982.31;1696085;83;21049;-88
2022/07/11 04:20:07;;;;;;;5.83;1.87;;;;;;;11.99;72.61;100979.65;1696145;83;21540;-88
2022/07/11 04:22:33;;;;;;;5.40;1.37;;;;;;;12.01;72.66;100982.63;1647099;85;21149;-88
2022/07/11 04:25:01;;;;;;;6.78;1.95;;;;;;;12.05;72.67;100983.44;1649329;85;21141;-88
2022/07/11 04:27:27;;;;;;;4.43;1.40;;;;;;;12.07;72.85;100990.75;1669342;85;20917;-88
2022/07/11 04:29:53;;;;;;;4.63;1.70;;;;;;;12.07;72.71;100978.64;1664230;85;20939;-88
2022/07/11 04:32:19;;;;;;;2.67;1.20;;;;;;;12.13;72.72;100985.02;1670175;85;20969;-88
2022/07/11 04:34:45;;;;;;;7.90;1.43;;;;;;;12.18;72.77;100986.25;1658462;85;21125;-88
2022/07/11 04:37:11;;;;;;;6.07;1.20;;;;;;;12.12;72.72;100973.39;1654225;85;21497;-88
2022/07/11 04:39:37;;;;;;;5.80;1.37;;;;;;;12.22;72.86;100987.91;1670566;85;21739;-88
2022/07/11 04:42:06;;;;;;;7.03;1.50;;;;;;;12.24;72.84;100980.96;1662405;85;21061;-88
2022/07/11 04:44:33;;;;;;;5.53;1.60;;;;;;;12.30;72.97;100983.89;1628057;85;21116;-88
2022/07/11 04:46:59;;;;;;;5.22;1.60;;;;;;;12.41;72.95;100985.86;1643311;85;21061;-88
2022/07/11 04:49:25;;;;;;;4.30;1.40;;;;;;;12.50;73.00;100984.37;1654011;85;21089;-88
2022/07/11 04:51:51;;;;;;;5.37;1.23;;;;;;;12.62;72.97;100987.19;1658266;85;21065;-88
2022/07/11 04:54:17;;;;;;;4.67;1.27;;;;;;;12.74;73.06;100983.06;1649692;85;21082;-88
2022/07/11 04:56:43;;;;;;;4.33;1.60;;;;;;;12.86;73.14;100978.94;1669009;85;21065;-88
2022/07/11 04:59:10;;;;;;;4.70;1.77;;;;;;;12.93;73.02;100983.13;1664436;85;21077;-88
2022/07/11 05:01:36;;;;;;;2.47;1.10;;;;;;;13.01;72.99;100988.99;1659066;85;21422;-88
2022/07/11 05:04:03;;;;;;;8.20;3.10;;;;;;;13.08;73.06;100987.98;1653234;85;21012;-88
2022/07/11 05:06:29;;;;;;;5.00;1.77;;;;;;;13.19;73.16;100989.95;1650941;85;22321;-88
2022/07/11 05:08:55;;;;;;;4.83;1.43;;;;;;;13.34;73.17;100990.52;1661671;85;21782;-87
2022/07/11 05:11:21;;;;;;;5.17;1.60;;;;;;;13.49;73.21;101000.58;1658654;85;21428;-87
2022/07/11 05:13:47;;;;;;;9.78;1.92;;;;;;;13.76;73.48;100995.19;1659103;85;21503;-87
2022/07/11 05:16:13;;;;;;;14.03;2.62;;;;;;;14.38;73.80;100997.99;1652222;85;21152;-88
2022/07/11 05:18:39;;;;;;;9.47;1.77;;;;;;;15.01;73.49;101002.39;1649195;85;20934;-88
2022/07/11 05:21:06;;;;;;;7.53;1.70;;;;;;;15.59;73.32;100998.95;1660143;85;21088;-88
2022/07/11 05:23:32;;;;;;;7.00;1.40;;;;;;;16.09;73.05;101002.55;1665670;85;21148;-87
2022/07/11 05:25:58;;;;;;;7.03;1.73;;;;;;;16.45;72.66;101000.45;1668907;85;21104;-88
2022/07/11 05:28:24;;;;;;;10.43;2.23;;;;;;;16.54;72.49;101006.66;1662486;85;21677;-88
2022/07/11 05:30:50;;;;;;;8.90;1.52;;;;;;;16.74;72.71;101011.65;1663995;85;21072;-89
2022/07/11 05:33:17;;;;;;;6.08;1.50;;;;;;;17.16;72.82;101010.53;1658581;85;21386;-89
2022/07/11 05:35:43;;;;;;;4.37;1.37;;;;;;;17.63;72.69;101016.59;1663716;85;22521;-88
2022/07/11 05:38:09;;;;;;;6.97;1.80;;;;;;;18.05;72.46;101014.05;1658778;85;20910;-89
2022/07/11 05:40:35;;;;;;;5.05;1.25;;;;;;;18.40;72.04;101026.97;1675611;85;21073;-88
2022/07/11 05:43:01;;;;;;;7.80;1.47;;;;;;;18.42;71.72;101026.91;1654186;85;20950;-88
2022/07/11 05:45:37;;;;;;;9.08;1.45;;;;;;;18.36;71.73;101030.63;1652976;85;21369;-88
2022/07/11 05:48:03;;;;;;;4.40;1.60;;;;;;;18.24;71.58;101033.76;1652298;85;20926;-88
2022/07/11 05:50:29;;;;;;;4.85;1.40;;;;;;;18.03;71.55;101038.58;1659832;85;21333;-88
2022/07/11 05:52:57;;;;;;;2.53;1.10;;;;;;;17.84;71.62;101038.00;1664092;85;21160;-89
2022/07/11 05:55:24;;;;;;;5.05;1.30;;;;;;;17.63;71.60;101029.67;1658510;84;22213;-89
2022/07/11 05:57:51;;;;;;;4.62;1.52;;;;;;;17.38;71.56;101034.13;1659295;85;21363;-89
2022/07/11 06:00:17;;;;;;;7.90;1.80;;;;;;;17.20;71.73;101028.66;1655849;83;21176;-90
2022/07/11 06:02:44;;;;;;;4.00;1.47;;;;;;;17.10;71.67;101032.55;1662552;84;21416;-89
2022/07/11 06:05:11;;;;;;;;;;;;;;;17.00;71.75;101040.31;1653929;85;21373;-88
2022/07/11 06:10:25;;;;;;;6.10;1.60;;;;;;;16.82;71.60;101039.20;1656577;85;21319;-87
2022/07/11 06:12:51;;;;;;;6.67;1.40;;;;;;;16.76;71.63;101039.41;1668067;84;21437;-87
2022/07/11 06:15:17;;;;;;;5.37;1.33;;;;;;;16.74;71.59;101041.23;1664703;84;21338;-87
2022/07/11 06:17:44;;;;;;;5.97;1.50;;;;;;;16.74;71.58;101045.14;1665331;84;21365;-88
2022/07/11 06:20:11;;;;;;;6.87;1.20;;;;;;;16.71;71.51;101047.01;1662821;84;21480;-88
2022/07/11 06:22:38;;;;;;;8.25;1.55;;;;;;;16.73;71.59;101046.05;1659807;85;21354;-88
2022/07/11 06:25:05;;;;;;;2.77;1.20;;;;;;;16.76;71.54;101042.48;1657361;85;28294;-85
2022/07/11 06:27:31;;;;;;;3.85;1.10;;;;;;;16.77;71.47;101042.42;1657840;85;21088;-85
2022/07/11 06:29:57;;;;;;;6.50;1.73;;;;;;;16.78;71.50;101050.66;1667781;85;21096;-85
2022/07/11 06:32:23;;;;;;;6.83;1.40;;;;;;;16.84;71.63;101048.30;1668379;84;21672;-85
2022/07/11 06:34:50;;;;;;;4.08;2.17;;;;;;;16.93;71.52;101052.34;1668415;85;21120;-85
2022/07/11 06:37:16;;;;;;;;;;;;;;;17.08;71.60;101051.80;1669829;84;21436;-86
2022/07/11 06:39:42;;;;;;;5.27;1.00;;;;;;;17.24;71.20;101046.84;1664721;84;20599;-87
2022/07/11 06:42:08;;;;;;;4.37;1.20;;;;;;;17.30;71.30;101046.62;1657956;84;22753;-86
2022/07/11 06:44:34;;;;;;;5.63;2.43;;;;;;;17.40;71.30;101051.91;1657940;85;21037;-86
2022/07/11 06:47:00;;;;;;;8.40;1.20;;;;;;;17.90;71.54;101048.68;1661275;85;21096;-86
2022/07/11 06:49:35;;;;;;;4.90;1.32;;;;;;;18.61;71.50;101053.22;1654659;85;21159;-85
2022/07/11 06:52:01;;;;;;;2.40;1.00;;;;;;;19.44;71.34;101048.15;1628689;85;21359;-86
2022/07/11 06:54:27;;;;;;;3.90;1.60;;;;;;;20.12;71.07;101051.08;1660480;84;21370;-86
2022/07/11 06:56:54;;;;;;;5.12;1.20;;;;;;;20.28;70.46;101050.69;1648135;85;21397;-86
2022/07/11 06:59:20;;;;;;;7.93;1.57;;;;;;;20.72;70.74;101052.91;1712382;83;20882;-86
2022/07/11 07:01:46;;;;;;;7.47;1.30;;;;;;;21.27;70.73;101053.52;1709751;81;21109;-86
2022/07/11 07:04:15;;;;;;;6.67;1.47;;;;;;;21.76;70.44;101055.62;1658751;85;21109;-86
2022/07/11 07:06:41;;;;;;;8.27;1.40;;;;;;;22.25;70.44;101057.28;1664676;85;21442;-87
2022/07/11 07:09:07;;;;;;;5.90;1.45;;;;;;;22.73;70.22;101056.17;1666673;85;21470;-87
2022/07/11 07:11:34;;;;;;;3.90;1.30;;;;;;;23.07;69.32;101059.80;1654794;85;21077;-86
2022/07/11 07:14:00;;;;;;;4.83;1.37;;;;;;;23.31;69.59;101051.33;1656047;85;20982;-86
2022/07/11 07:16:26;;;;;;;5.63;1.20;;;;;;;23.57;69.10;101055.82;1659796;84;21169;-86
2022/07/11 07:18:52;;;;;;;2.67;1.17;;;;;;;23.76;68.69;101056.36;1661115;85;20938;-86
2022/07/11 07:21:18;;;;;;;2.17;0.93;;;;;;;24.02;68.74;101053.80;1670030;85;21044;-86
2022/07/11 07:23:47;;;;;;;3.22;1.20;;;;;;;24.18;68.42;101057.14;1648632;85;21089;-86
2022/07/11 07:26:13;;;;;;;3.37;1.20;;;;;;;24.33;68.08;101050.03;1656281;85;21116;-86
2022/07/11 07:28:40;;;;;;;1.57;1.10;;;;;;;24.56;67.87;101047.14;1648048;85;21377;-87
2022/07/11 07:31:07;;;;;;;6.37;1.82;;;;;;;24.78;67.56;101051.83;1665211;85;21612;-87
2022/07/11 07:33:33;;;;;;;3.40;0.93;;;;;;;24.98;67.01;101050.83;1657465;85;21124;-87
2022/07/11 07:36:00;;;;;;;4.05;1.37;;;;;;;25.16;67.14;101053.15;1653355;85;21081;-87
2022/07/11 07:38:27;;;;;;;4.70;1.30;;;;;;;25.13;66.50;101053.36;1662546;84;21156;-87
2022/07/11 07:40:53;;;;;;;;;;;;;;;24.80;65.96;101053.41;1671817;85;21004;-87
2022/07/11 07:43:19;;;;;;;4.75;1.42;;;;;;;24.44;65.71;101059.38;1666765;85;20227;-87
2022/07/11 07:45:45;;;;;;;3.23;1.30;;;;;;;24.51;66.29;101058.02;1715135;83;21790;-87
2022/07/11 07:48:11;;;;;;;4.30;1.25;;;;;;;24.60;65.99;101054.77;1712790;83;21076;-86
2022/07/11 07:50:37;;;;;;;2.08;0.93;;;;;;;24.52;65.32;101056.23;1715071;83;21049;-86
2022/07/11 07:53:04;;;;;;;2.45;1.30;;;;;;;24.26;65.21;101050.91;1713425;83;21056;-86
2022/07/11 07:55:30;;;;;;;4.80;1.20;;;;;;;24.45;65.15;101047.86;1709140;82;21107;-86
2022/07/11 07:57:56;;;;;;;4.75;1.30;;;;;;;24.45;64.77;101049.18;1724975;82;21071;-85
2022/07/11 08:03:10;;;;;;;4.80;1.00;;;;;;;24.41;64.40;101051.69;1694277;84;22455;-87
2022/07/11 08:05:55;;;;;;;4.00;0.85;;;;;;;24.80;63.95;101049.92;1695220;84;21048;-87
2022/07/11 08:08:21;;;;;;;5.58;0.60;;;;;;;24.74;63.26;101045.89;1674555;85;21039;-89
2022/07/11 08:10:48;;;;;;;0.80;0.60;;;;;;;24.38;62.98;101040.00;1666728;84;21140;-89
2022/07/11 08:13:14;;;;;;;3.87;0.80;;;;;;;23.95;62.73;101040.14;1688406;84;21132;-90
2022/07/11 08:15:41;;;;;;;4.78;1.05;;;;;;;23.58;62.69;101039.52;1660743;85;21075;-89
2022/07/11 08:18:07;;;;;;;2.55;0.90;;;;;;;23.15;62.21;101022.87;1669993;85;21059;-89
2022/07/11 08:20:37;;;;;;;1.52;0.90;;;;;;;22.87;62.39;101044.83;1695179;84;21080;-89
2022/07/11 08:23:04;;;;;;;2.05;0.70;;;;;;;22.50;62.03;101044.34;1727058;82;21108;-89
2022/07/11 08:25:31;;;;;;;;;;;;;;;22.26;62.06;101041.84;1728330;82;21116;-89
2022/07/11 08:27:56;;;;;;;;;;;;;;;22.13;61.65;101037.28;1733156;82;20196;-89
2022/07/11 08:30:23;;;;;;;1.10;0.30;;;;;;;22.15;61.57;101036.34;1733376;81;20218;-88
2022/07/11 08:32:49;;;;;;;0.80;0.33;;;;;;;22.57;61.71;101044.36;1727595;82;21129;-89
2022/07/11 08:35:19;;;;;;;1.60;0.53;;;;;;;22.71;61.32;101039.12;1727787;81;22836;-88
2022/07/11 08:37:44;;;;;;;2.30;0.40;;;;;;;22.55;60.89;101047.56;1729892;82;21505;-88
2022/07/11 08:40:11;;;;;;;0.72;0.40;;;;;;;22.27;61.00;101049.66;1727261;82;21099;-88
2022/07/11 08:42:42;;;;;;;;;;;;;;;22.00;60.93;101052.05;1701796;84;21055;-88
2022/07/11 08:45:14;;;;;;;1.20;0.37;;;;;;;21.85;61.20;101050.74;1670393;85;20463;-88
2022/07/11 08:47:43;;;;;;;0.45;0.33;;;;;;;21.73;61.12;101043.94;1696578;84;21079;-88
2022/07/11 08:50:12;;;;;;;2.62;0.40;;;;;;;21.66;61.12;101041.73;1669320;84;21555;-88
2022/07/11 08:52:39;;;;;;;2.25;0.30;;;;;;;21.76;61.06;101046.87;1673385;84;21507;-88
2022/07/11 08:55:07;;;;;;;5.28;0.42;;;;;;;21.70;60.73;101055.11;1687603;84;21076;-89
2022/07/11 08:57:35;;;;;;;;;;;;;;;21.43;60.55;101054.36;1716007;81;21045;-89
2022/07/11 09:00:05;;;;;;;1.55;0.20;;;;;;;21.13;60.02;101050.73;1678542;83;20185;-89
2022/07/11 09:02:46;;;;;;;1.35;0.33;;;;;;;20.78;60.44;101049.97;1680020;84;21139;-89
2022/07/11 09:05:13;;;;;;;0.62;0.20;;;;;;;20.58;60.54;101055.38;1674096;84;21051;-88
2022/07/11 09:07:47;;;;;;;0.82;0.50;;;;;;;20.54;60.69;101057.31;1650607;86;21110;-89
2022/07/11 09:10:18;;;;;;;1.22;0.42;;;;;;;20.58;60.65;101055.38;1653413;85;21057;-89
2022/07/11 09:13:10;;;;;;;1.02;0.30;;;;;;;20.62;60.58;101056.47;1675816;83;21673;-88
2022/07/11 09:15:48;;;;;;;1.77;0.30;;;;;;;20.72;60.27;101052.91;1675938;84;21048;-89
2022/07/11 09:18:34;;;;;;;0.30;0.20;;;;;;;20.71;60.23;101056.00;1666877;85;21125;-89
2022/07/11 09:26:47;;;;;;;0.88;0.20;;;;;;;20.20;59.51;101043.68;1669049;84;20925;-89
2022/07/11 09:29:27;;;;;;;3.77;0.33;;;;;;;19.87;59.72;101054.48;1658071;86;20965;-89
2022/07/11 09:32:00;;;;;;;0.42;0.30;;;;;;;19.69;59.46;101054.47;1659845;84;21125;-89
2022/07/11 09:34:31;;;;;;;2.67;0.28;;;;;;;19.53;59.65;101058.71;1649677;85;21583;-89
2022/07/11 09:36:56;;;;;;;1.20;0.20;;;;;;;19.53;59.68;101060.48;1663578;85;21109;-89
2022/07/11 09:39:27;;;;;;;0.70;0.13;;;;;;;19.50;59.46;101057.05;1663782;85;21375;-88
2022/07/11 09:41:55;;;;;;;1.37;0.42;;;;;;;19.53;59.52;101052.62;1669734;83;20956;-89
2022/07/11 09:44:31;;;;;;;2.33;0.30;;;;;;;19.61;59.69;101055.73;1630596;86;20957;-89
2022/07/11 09:46:57;;;;;;;2.37;0.57;;;;;;;19.71;59.54;101044.75;1642818;85;21000;-89
2022/07/11 09:49:35;;;;;;;1.05;0.30;;;;;;;19.80;59.48;101046.91;1671713;84;21112;-89
2022/07/11 09:52:13;;;;;;;0.85;0.40;;;;;;;19.91;59.41;101053.42;1666242;84;20926;-88
2022/07/11 09:55:00;;;;;;;0.35;0.20;;;;;;;19.99;59.39;101050.82;1677254;85;20941;-89
2022/07/11 09:57:36;;;;;;;0.40;0.20;;;;;;;19.91;58.69;101054.27;1658179;84;20977;-90
2022/07/11 10:00:13;;;;;;;0.42;0.20;;;;;;;19.81;58.81;101051.70;1649708;84;21057;-90
2022/07/11 10:02:41;;;;;;;0.47;0.10;;;;;;;19.84;58.97;101048.46;1709516;83;21116;-90
2022/07/11 10:05:08;;;;;;;1.05;0.28;;;;;;;19.93;58.93;101048.48;1713171;83;21115;-89
2022/07/11 10:07:36;;;;;;;2.62;0.45;;;;;;;20.01;58.75;101044.19;1713869;83;21036;-89
2022/07/11 10:10:06;;;;;;;0.20;0.20;;;;;;;19.92;58.46;101052.03;1624500;85;21197;-89
2022/07/11 10:12:33;;;;;;;0.50;0.15;;;;;;;19.90;58.42;101042.53;1661757;85;20942;-89
2022/07/11 10:15:09;;;;;;;1.75;0.10;;;;;;;19.93;58.18;101045.86;1663445;85;20969;-89
2022/07/11 10:18:14;;;;;;;0.30;0.10;;;;;;;20.01;58.26;101048.13;1672273;85;20985;-89
2022/07/11 10:21:07;;;;;;;;;;;;;;;20.04;58.07;101052.77;1656213;85;20950;-89
2022/07/11 10:23:54;;;;;;;1.15;0.10;;;;;;;20.03;56.84;101049.75;1668589;85;20124;-89
2022/07/11 10:26:33;;;;;;;;;;;;;;;19.98;57.21;101049.12;1668134;84;20946;-89
2022/07/11 10:29:33;;;;;;;1.32;0.20;;;;;;;19.86;50.97;101043.60;1651547;85;20147;-90
2022/07/11 10:32:11;;;;;;;0.30;0.10;;;;;;;19.89;57.39;101050.87;1667650;85;21626;-90
2022/07/11 10:34:40;;;;;;;1.67;0.00;;;;;;;20.03;57.13;101048.90;1661126;85;20941;-89
2022/07/11 10:37:09;;;;;;;1.17;0.10;;;;;;;20.05;56.67;101050.52;1652595;85;20934;-89
2022/07/11 10:39:37;;;;;;;0.00;0.00;;;;;;;20.05;56.42;101050.98;1654400;85;21562;-89
2022/07/11 10:42:06;;;;;;;0.17;0.10;;;;;;;20.08;56.62;101054.78;1668035;85;21009;-89
2022/07/11 10:44:54;;;;;;;0.40;0.13;;;;;;;20.20;56.48;101054.19;1655000;85;21168;-89
2022/07/11 10:47:36;;;;;;;0.40;0.10;;;;;;;20.27;56.31;101051.64;1622630;85;20958;-90
2022/07/11 10:50:38;;;;;;;0.10;0.10;;;;;;;20.46;56.56;101056.38;1656100;85;21088;-89
2022/07/11 10:53:12;;;;;;;0.20;0.20;;;;;;;20.67;56.43;101060.17;1659516;85;21597;-89
2022/07/11 10:55:50;;;;;;;0.88;0.00;;;;;;;20.82;56.13;101056.27;1629103;85;21104;-89
2022/07/11 10:58:31;;;;;;;0.00;0.00;;;;;;;20.94;56.01;101065.77;1669065;85;21080;-90
2022/07/11 11:01:13;;;;;;;0.15;0.13;;;;;;;21.00;55.81;101057.56;1675212;85;21145;-89
2022/07/11 11:03:44;;;;;;;0.40;0.10;;;;;;;21.05;55.83;101064.74;1667788;85;21557;-88
2022/07/11 11:06:12;;;;;;;0.85;0.30;;;;;;;20.95;55.54;101070.95;1674896;85;21337;-88
2022/07/11 11:08:42;;;;;;;0.00;0.00;;;;;;;20.85;55.27;101072.34;1675659;85;21632;-88
2022/07/11 11:11:23;;;;;;;0.20;0.10;;;;;;;20.73;54.92;101083.52;1670179;85;21088;-88
2022/07/11 11:14:19;;;;;;;0.20;0.00;;;;;;;20.66;54.65;101068.98;1669366;85;21088;-88
2022/07/11 11:16:47;;;;;;;2.15;0.13;;;;;;;20.64;54.88;101078.26;1640920;86;21080;-89
2022/07/11 11:19:48;;;;;;;;;;;;;;;20.65;54.53;101065.97;1665075;86;21084;-88
2022/07/11 11:22:22;;;;;;;0.00;0.00;;;;;;;20.68;54.50;101075.86;1644276;86;20125;-88
2022/07/11 11:24:52;;;;;;;0.20;0.10;;;;;;;20.78;54.80;101068.36;1645092;85;21003;-89
2022/07/11 11:27:22;;;;;;;0.70;0.10;;;;;;;20.87;54.48;101064.38;1659008;85;20953;-88
2022/07/11 11:29:55;;;;;;;0.90;0.13;;;;;;;20.97;54.56;101061.66;1667808;85;21426;-88
2022/07/11 11:32:25;;;;;;;0.82;0.30;;;;;;;21.10;54.43;101060.09;1662512;85;20989;-88
2022/07/11 11:34:51;;;;;;;0.10;0.10;;;;;;;21.12;54.04;101058.23;1659322;85;20979;-89
2022/07/11 11:37:29;;;;;;;1.10;0.30;;;;;;;21.10;54.15;101062.72;1658927;84;21377;-88
2022/07/11 11:40:00;;;;;;;2.42;0.30;;;;;;;21.13;54.11;101065.20;1677652;84;20911;-88
2022/07/11 11:42:28;;;;;;;0.47;0.20;;;;;;;21.15;54.14;101067.28;1673775;84;21399;-88
2022/07/11 11:44:59;;;;;;;2.60;0.45;;;;;;;21.19;54.17;101066.66;1648993;86;20897;-88